sensor_id;sensor_type;location;lat;lon;timestamp;temperature;humidity
29777;DHT22;16677;52.224;7.484;2023-02-11T00:00:21;6.70;1.00
29777;DHT22;16677;52.224;7.484;2023-02-11T00:02:48;6.70;1.00
29777;DHT22;16677;52.224;7.484;2023-02-11T00:05:15;6.70;1.00
29777;DHT22;16677;52.224;7.484;2023-02-11T00:07:42;6.70;99.90
29777;DHT22;16677;52.224;7.484;2023-02-11T00:10:09;6.70;99.90
29777;DHT22;16677;52.224;7.484;2023-02-11T00:12:36;6.60;99.90
29777;DHT22;16677;52.224;7.484;2023-02-11T00:15:05;6.60;99.90
29777;DHT22;16677;52.224;7.484;2023-02-11T00:17:33;6.60;1.00
29777;DHT22;16677;52.224;7.484;2023-02-11T00:20:00;6.60;1.00
29777;DHT22;16677;52.224;7.484;2023-02-11T00:22:26;6.60;1.00
29777;DHT22;16677;52.224;7.484;2023-02-11T00:24:53;6.80;99.90
29777;DHT22;16677;52.224;7.484;2023-02-11T00:27:22;6.70;1.00
29777;DHT22;16677;52.224;7.484;2023-02-11T00:29:49;6.60;99.90
29777;DHT22;16677;52.224;7.484;2023-02-11T00:32:16;6.70;99.90
29777;DHT22;16677;52.224;7.484;2023-02-11T00:34:43;6.60;1.00
29777;DHT22;16677;52.224;7.484;2023-02-11T00:37:10;6.70;99.90
29777;DHT22;16677;52.224;7.484;2023-02-11T00:39:37;6.70;56.00
29777;DHT22;16677;52.224;7.484;2023-02-11T00:42:04;6.70;1.00
29777;DHT22;16677;52.224;7.484;2023-02-11T00:44:31;6.70;1.00
29777;DHT22;16677;52.224;7.484;2023-02-11T00:46:58;6.70;1.00
29777;DHT22;16677;52.224;7.484;2023-02-11T00:49:25;6.60;1.00
29777;DHT22;16677;52.224;7.484;2023-02-11T00:51:52;6.70;1.00
29777;DHT22;16677;52.224;7.484;2023-02-11T00:54:19;6.70;1.00
29777;DHT22;16677;52.224;7.484;2023-02-11T00:56:46;6.70;99.90
29777;DHT22;16677;52.224;7.484;2023-02-11T00:59:13;6.80;99.90
29777;DHT22;16677;52.224;7.484;2023-02-11T01:01:39;6.80;99.90
29777;DHT22;16677;52.224;7.484;2023-02-11T01:04:07;6.80;99.90
29777;DHT22;16677;52.224;7.484;2023-02-11T01:06:33;6.80;99.90
29777;DHT22;16677;52.224;7.484;2023-02-11T01:09:00;6.80;99.90
29777;DHT22;16677;52.224;7.484;2023-02-11T01:11:27;7.00;59.20
29777;DHT22;16677;52.224;7.484;2023-02-11T01:13:54;6.90;28.10
29777;DHT22;16677;52.224;7.484;2023-02-11T01:16:21;6.90;1.00
29777;DHT22;16677;52.224;7.484;2023-02-11T01:18:48;7.00;1.00
29777;DHT22;16677;52.224;7.484;2023-02-11T01:21:15;6.90;1.00
29777;DHT22;16677;52.224;7.484;2023-02-11T01:23:42;6.90;1.00
29777;DHT22;16677;52.224;7.484;2023-02-11T01:26:09;6.80;1.00
29777;DHT22;16677;52.224;7.484;2023-02-11T01:28:36;6.80;1.00
29777;DHT22;16677;52.224;7.484;2023-02-11T01:31:03;6.80;1.00
29777;DHT22;16677;52.224;7.484;2023-02-11T01:33:30;6.90;1.00
29777;DHT22;16677;52.224;7.484;2023-02-11T01:36:02;6.90;1.00
29777;DHT22;16677;52.224;7.484;2023-02-11T01:38:30;6.90;1.00
29777;DHT22;16677;52.224;7.484;2023-02-11T01:41:00;6.90;1.00
29777;DHT22;16677;52.224;7.484;2023-02-11T01:43:31;6.90;1.00
29777;DHT22;16677;52.224;7.484;2023-02-11T01:46:12;6.90;1.00
29777;DHT22;16677;52.224;7.484;2023-02-11T01:48:43;6.90;1.00
29777;DHT22;16677;52.224;7.484;2023-02-11T01:51:24;6.90;1.00
29777;DHT22;16677;52.224;7.484;2023-02-11T01:53:53;7.00;1.00
29777;DHT22;16677;52.224;7.484;2023-02-11T01:56:44;6.90;1.00
29777;DHT22;16677;52.224;7.484;2023-02-11T01:59:38;6.90;1.00
29777;DHT22;16677;52.224;7.484;2023-02-11T02:02:10;6.90;1.00
29777;DHT22;16677;52.224;7.484;2023-02-11T02:04:46;6.90;1.00
29777;DHT22;16677;52.224;7.484;2023-02-11T02:07:23;6.90;1.00
29777;DHT22;16677;52.224;7.484;2023-02-11T02:09:57;7.00;1.00
29777;DHT22;16677;52.224;7.484;2023-02-11T02:12:25;6.90;1.00
29777;DHT22;16677;52.224;7.484;2023-02-11T02:17:40;6.90;1.00
29777;DHT22;16677;52.224;7.484;2023-02-11T02:25:57;6.80;1.00
29777;DHT22;16677;52.224;7.484;2023-02-11T02:28:44;6.80;1.00
29777;DHT22;16677;52.224;7.484;2023-02-11T02:34:25;6.90;1.00
29777;DHT22;16677;52.224;7.484;2023-02-11T02:37:03;6.80;1.00
29777;DHT22;16677;52.224;7.484;2023-02-11T02:39:34;6.80;1.00
29777;DHT22;16677;52.224;7.484;2023-02-11T02:42:02;6.80;1.00
29777;DHT22;16677;52.224;7.484;2023-02-11T02:44:30;6.80;1.00
29777;DHT22;16677;52.224;7.484;2023-02-11T02:46:57;6.90;1.00
29777;DHT22;16677;52.224;7.484;2023-02-11T02:49:24;6.80;1.00
29777;DHT22;16677;52.224;7.484;2023-02-11T02:52:10;6.90;1.00
29777;DHT22;16677;52.224;7.484;2023-02-11T02:57:47;6.90;1.00
29777;DHT22;16677;52.224;7.484;2023-02-11T03:03:22;6.90;1.00
29777;DHT22;16677;52.224;7.484;2023-02-11T03:06:06;6.90;1.00
29777;DHT22;16677;52.224;7.484;2023-02-11T03:08:55;6.80;1.00
29777;DHT22;16677;52.224;7.484;2023-02-11T03:11:23;6.90;1.00
29777;DHT22;16677;52.224;7.484;2023-02-11T03:13:51;6.90;1.00
29777;DHT22;16677;52.224;7.484;2023-02-11T03:16:24;6.80;1.00
29777;DHT22;16677;52.224;7.484;2023-02-11T03:18:56;6.90;1.00
29777;DHT22;16677;52.224;7.484;2023-02-11T03:21:24;6.90;1.00
29777;DHT22;16677;52.224;7.484;2023-02-11T03:23:56;6.90;1.00
29777;DHT22;16677;52.224;7.484;2023-02-11T03:26:43;6.90;1.00
29777;DHT22;16677;52.224;7.484;2023-02-11T03:29:30;6.90;1.00
29777;DHT22;16677;52.224;7.484;2023-02-11T03:34:38;6.90;1.00
29777;DHT22;16677;52.224;7.484;2023-02-11T03:37:21;6.80;1.00
29777;DHT22;16677;52.224;7.484;2023-02-11T03:40:21;6.80;1.00
29777;DHT22;16677;52.224;7.484;2023-02-11T03:42:56;6.80;1.00
29777;DHT22;16677;52.224;7.484;2023-02-11T03:45:44;6.80;1.00
29777;DHT22;16677;52.224;7.484;2023-02-11T03:48:13;6.80;1.00
29777;DHT22;16677;52.224;7.484;2023-02-11T03:50:42;6.90;1.00
29777;DHT22;16677;52.224;7.484;2023-02-11T03:53:11;6.90;1.00
29777;DHT22;16677;52.224;7.484;2023-02-11T03:55:40;6.90;1.00
29777;DHT22;16677;52.224;7.484;2023-02-11T03:58:09;6.80;1.00
29777;DHT22;16677;52.224;7.484;2023-02-11T04:04:24;6.80;1.00
29777;DHT22;16677;52.224;7.484;2023-02-11T04:06:51;6.90;1.00
29777;DHT22;16677;52.224;7.484;2023-02-11T04:09:18;7.00;1.00
29777;DHT22;16677;52.224;7.484;2023-02-11T04:11:45;6.90;1.00
29777;DHT22;16677;52.224;7.484;2023-02-11T04:14:12;6.90;1.00
29777;DHT22;16677;52.224;7.484;2023-02-11T04:16:39;6.90;1.00
29777;DHT22;16677;52.224;7.484;2023-02-11T04:19:06;6.90;1.00
29777;DHT22;16677;52.224;7.484;2023-02-11T04:21:33;6.80;1.00
29777;DHT22;16677;52.224;7.484;2023-02-11T04:24:00;6.80;1.00
29777;DHT22;16677;52.224;7.484;2023-02-11T04:26:27;6.80;1.00
29777;DHT22;16677;52.224;7.484;2023-02-11T04:28:54;6.80;1.00
29777;DHT22;16677;52.224;7.484;2023-02-11T04:31:20;6.80;1.00
29777;DHT22;16677;52.224;7.484;2023-02-11T04:33:48;6.80;1.00
29777;DHT22;16677;52.224;7.484;2023-02-11T04:36:14;6.80;1.00
29777;DHT22;16677;52.224;7.484;2023-02-11T04:38:41;6.80;1.00
29777;DHT22;16677;52.224;7.484;2023-02-11T04:41:08;6.80;1.00
29777;DHT22;16677;52.224;7.484;2023-02-11T04:43:35;6.80;1.00
29777;DHT22;16677;52.224;7.484;2023-02-11T04:46:02;6.80;13.00
29777;DHT22;16677;52.224;7.484;2023-02-11T04:48:29;6.70;43.00
29777;DHT22;16677;52.224;7.484;2023-02-11T04:50:56;6.80;17.40
29777;DHT22;16677;52.224;7.484;2023-02-11T04:53:23;6.80;58.00
29777;DHT22;16677;52.224;7.484;2023-02-11T04:55:49;6.80;1.00
29777;DHT22;16677;52.224;7.484;2023-02-11T04:58:18;6.80;1.00
29777;DHT22;16677;52.224;7.484;2023-02-11T05:00:45;6.80;4.50
29777;DHT22;16677;52.224;7.484;2023-02-11T05:03:13;6.80;4.40
29777;DHT22;16677;52.224;7.484;2023-02-11T05:05:41;6.80;59.20
29777;DHT22;16677;52.224;7.484;2023-02-11T05:08:11;6.80;91.60
29777;DHT22;16677;52.224;7.484;2023-02-11T05:10:38;6.80;41.60
29777;DHT22;16677;52.224;7.484;2023-02-11T05:13:05;6.80;83.40
29777;DHT22;16677;52.224;7.484;2023-02-11T05:15:32;6.80;56.90
29777;DHT22;16677;52.224;7.484;2023-02-11T05:17:59;6.90;74.20
29777;DHT22;16677;52.224;7.484;2023-02-11T05:20:25;6.90;52.10
29777;DHT22;16677;52.224;7.484;2023-02-11T05:22:52;6.80;51.10
29777;DHT22;16677;52.224;7.484;2023-02-11T05:25:19;6.80;80.70
29777;DHT22;16677;52.224;7.484;2023-02-11T05:27:46;6.80;90.00
29777;DHT22;16677;52.224;7.484;2023-02-11T05:30:13;6.90;99.90
29777;DHT22;16677;52.224;7.484;2023-02-11T05:32:41;6.80;75.40
29777;DHT22;16677;52.224;7.484;2023-02-11T05:35:07;6.80;99.90
29777;DHT22;16677;52.224;7.484;2023-02-11T05:37:35;6.80;99.90
29777;DHT22;16677;52.224;7.484;2023-02-11T05:40:03;6.80;99.90
29777;DHT22;16677;52.224;7.484;2023-02-11T05:42:30;6.90;99.90
29777;DHT22;16677;52.224;7.484;2023-02-11T05:44:57;6.80;99.90
29777;DHT22;16677;52.224;7.484;2023-02-11T05:47:23;6.80;99.90
29777;DHT22;16677;52.224;7.484;2023-02-11T05:49:50;6.90;99.90
29777;DHT22;16677;52.224;7.484;2023-02-11T05:52:20;6.90;58.70
29777;DHT22;16677;52.224;7.484;2023-02-11T05:54:47;6.90;81.60
29777;DHT22;16677;52.224;7.484;2023-02-11T05:57:15;6.80;53.60
29777;DHT22;16677;52.224;7.484;2023-02-11T05:59:42;6.90;99.90
29777;DHT22;16677;52.224;7.484;2023-02-11T06:02:09;6.80;99.90
29777;DHT22;16677;52.224;7.484;2023-02-11T06:04:36;6.80;99.90
29777;DHT22;16677;52.224;7.484;2023-02-11T06:07:04;6.80;99.90
29777;DHT22;16677;52.224;7.484;2023-02-11T06:09:31;6.90;99.90
29777;DHT22;16677;52.224;7.484;2023-02-11T06:11:57;6.80;99.90
29777;DHT22;16677;52.224;7.484;2023-02-11T06:14:24;6.80;99.90
29777;DHT22;16677;52.224;7.484;2023-02-11T06:16:51;6.70;99.90
29777;DHT22;16677;52.224;7.484;2023-02-11T06:19:18;6.80;99.90
29777;DHT22;16677;52.224;7.484;2023-02-11T06:21:45;6.70;99.90
29777;DHT22;16677;52.224;7.484;2023-02-11T06:24:12;6.80;99.90
29777;DHT22;16677;52.224;7.484;2023-02-11T06:26:39;6.80;99.90
29777;DHT22;16677;52.224;7.484;2023-02-11T06:29:06;6.90;99.90
29777;DHT22;16677;52.224;7.484;2023-02-11T06:31:33;6.90;99.90
29777;DHT22;16677;52.224;7.484;2023-02-11T06:34:00;6.90;99.90
29777;DHT22;16677;52.224;7.484;2023-02-11T06:36:27;6.80;99.90
29777;DHT22;16677;52.224;7.484;2023-02-11T06:38:54;6.80;99.90
29777;DHT22;16677;52.224;7.484;2023-02-11T06:41:21;6.80;99.90
29777;DHT22;16677;52.224;7.484;2023-02-11T06:43:48;6.80;99.90
29777;DHT22;16677;52.224;7.484;2023-02-11T06:46:15;6.70;99.90
29777;DHT22;16677;52.224;7.484;2023-02-11T06:48:42;6.80;99.90
29777;DHT22;16677;52.224;7.484;2023-02-11T06:51:11;6.70;1.00
29777;DHT22;16677;52.224;7.484;2023-02-11T06:53:42;6.70;1.00
29777;DHT22;16677;52.224;7.484;2023-02-11T06:56:12;6.60;1.00
29777;DHT22;16677;52.224;7.484;2023-02-11T06:58:39;6.60;20.30
29777;DHT22;16677;52.224;7.484;2023-02-11T07:01:08;6.70;1.00
29777;DHT22;16677;52.224;7.484;2023-02-11T07:03:38;6.80;1.00
29777;DHT22;16677;52.224;7.484;2023-02-11T07:06:06;6.90;99.90
29777;DHT22;16677;52.224;7.484;2023-02-11T07:08:34;6.80;99.90
29777;DHT22;16677;52.224;7.484;2023-02-11T07:11:13;6.70;1.00
29777;DHT22;16677;52.224;7.484;2023-02-11T07:13:40;6.70;1.00
29777;DHT22;16677;52.224;7.484;2023-02-11T07:16:11;6.80;1.00
29777;DHT22;16677;52.224;7.484;2023-02-11T07:18:38;6.70;1.00
29777;DHT22;16677;52.224;7.484;2023-02-11T07:21:08;6.60;99.90
29777;DHT22;16677;52.224;7.484;2023-02-11T07:23:36;6.70;1.00
29777;DHT22;16677;52.224;7.484;2023-02-11T07:26:05;6.70;1.00
29777;DHT22;16677;52.224;7.484;2023-02-11T07:28:33;6.70;1.00
29777;DHT22;16677;52.224;7.484;2023-02-11T07:31:09;6.80;1.00
29777;DHT22;16677;52.224;7.484;2023-02-11T07:33:36;6.70;74.40
29777;DHT22;16677;52.224;7.484;2023-02-11T07:36:05;6.60;94.60
29777;DHT22;16677;52.224;7.484;2023-02-11T07:38:34;6.60;1.00
29777;DHT22;16677;52.224;7.484;2023-02-11T07:41:03;6.70;1.00
29777;DHT22;16677;52.224;7.484;2023-02-11T07:43:31;6.60;1.00
29777;DHT22;16677;52.224;7.484;2023-02-11T07:45:58;6.60;1.00
29777;DHT22;16677;52.224;7.484;2023-02-11T07:48:25;6.70;99.90
29777;DHT22;16677;52.224;7.484;2023-02-11T07:50:51;6.70;99.90
29777;DHT22;16677;52.224;7.484;2023-02-11T07:53:18;6.70;1.00
29777;DHT22;16677;52.224;7.484;2023-02-11T07:55:45;6.70;99.90
29777;DHT22;16677;52.224;7.484;2023-02-11T07:58:12;6.70;99.90
29777;DHT22;16677;52.224;7.484;2023-02-11T08:00:39;6.70;1.00
29777;DHT22;16677;52.224;7.484;2023-02-11T08:03:06;6.70;99.90
29777;DHT22;16677;52.224;7.484;2023-02-11T08:05:36;6.70;99.90
29777;DHT22;16677;52.224;7.484;2023-02-11T08:08:03;6.70;1.00
29777;DHT22;16677;52.224;7.484;2023-02-11T08:10:30;6.70;99.90
29777;DHT22;16677;52.224;7.484;2023-02-11T08:12:57;6.70;1.00
29777;DHT22;16677;52.224;7.484;2023-02-11T08:15:24;6.80;1.00
29777;DHT22;16677;52.224;7.484;2023-02-11T08:17:51;6.80;99.90
29777;DHT22;16677;52.224;7.484;2023-02-11T08:20:18;6.80;99.90
29777;DHT22;16677;52.224;7.484;2023-02-11T08:22:45;6.80;1.00
29777;DHT22;16677;52.224;7.484;2023-02-11T08:25:12;6.80;6.00
29777;DHT22;16677;52.224;7.484;2023-02-11T08:27:39;6.80;99.90
29777;DHT22;16677;52.224;7.484;2023-02-11T08:30:06;6.90;1.00
29777;DHT22;16677;52.224;7.484;2023-02-11T08:32:33;6.80;99.90
29777;DHT22;16677;52.224;7.484;2023-02-11T08:35:00;6.90;5.60
29777;DHT22;16677;52.224;7.484;2023-02-11T08:37:27;6.90;99.90
29777;DHT22;16677;52.224;7.484;2023-02-11T08:39:58;7.10;1.00
29777;DHT22;16677;52.224;7.484;2023-02-11T08:42:25;7.10;99.90
29777;DHT22;16677;52.224;7.484;2023-02-11T08:44:51;7.00;99.90
29777;DHT22;16677;52.224;7.484;2023-02-11T08:47:18;7.00;99.90
29777;DHT22;16677;52.224;7.484;2023-02-11T08:49:45;7.10;99.90
29777;DHT22;16677;52.224;7.484;2023-02-11T08:52:12;7.10;99.90
29777;DHT22;16677;52.224;7.484;2023-02-11T08:54:39;7.10;1.00
29777;DHT22;16677;52.224;7.484;2023-02-11T08:57:06;7.10;1.00
29777;DHT22;16677;52.224;7.484;2023-02-11T08:59:33;7.00;1.00
29777;DHT22;16677;52.224;7.484;2023-02-11T09:02:00;7.10;99.90
29777;DHT22;16677;52.224;7.484;2023-02-11T09:04:27;7.20;99.90
29777;DHT22;16677;52.224;7.484;2023-02-11T09:06:54;7.30;99.90
29777;DHT22;16677;52.224;7.484;2023-02-11T09:09:21;7.20;99.90
29777;DHT22;16677;52.224;7.484;2023-02-11T09:11:48;7.20;99.90
29777;DHT22;16677;52.224;7.484;2023-02-11T09:14:20;7.30;1.00
29777;DHT22;16677;52.224;7.484;2023-02-11T09:16:48;7.40;99.90
29777;DHT22;16677;52.224;7.484;2023-02-11T09:19:16;7.40;1.00
29777;DHT22;16677;52.224;7.484;2023-02-11T09:21:43;7.50;1.00
29777;DHT22;16677;52.224;7.484;2023-02-11T09:24:10;7.40;1.00
29777;DHT22;16677;52.224;7.484;2023-02-11T09:26:37;7.30;1.00
29777;DHT22;16677;52.224;7.484;2023-02-11T09:29:06;7.30;99.90
29777;DHT22;16677;52.224;7.484;2023-02-11T09:31:34;7.40;99.90
29777;DHT22;16677;52.224;7.484;2023-02-11T09:34:04;7.40;1.00
29777;DHT22;16677;52.224;7.484;2023-02-11T09:36:34;7.40;99.90
29777;DHT22;16677;52.224;7.484;2023-02-11T09:39:05;7.60;99.90
29777;DHT22;16677;52.224;7.484;2023-02-11T09:44:23;7.60;1.00
29777;DHT22;16677;52.224;7.484;2023-02-11T09:47:02;7.50;99.90
29777;DHT22;16677;52.224;7.484;2023-02-11T09:49:43;7.50;6.50
29777;DHT22;16677;52.224;7.484;2023-02-11T09:54:58;7.50;99.90
29777;DHT22;16677;52.224;7.484;2023-02-11T09:57:32;7.50;99.90
29777;DHT22;16677;52.224;7.484;2023-02-11T10:00:00;7.60;99.90
29777;DHT22;16677;52.224;7.484;2023-02-11T10:05:24;7.60;1.00
29777;DHT22;16677;52.224;7.484;2023-02-11T10:08:07;7.70;1.00
29777;DHT22;16677;52.224;7.484;2023-02-11T10:11:06;7.80;1.00
29777;DHT22;16677;52.224;7.484;2023-02-11T10:13:37;7.70;99.90
29777;DHT22;16677;52.224;7.484;2023-02-11T10:23:53;7.80;1.00
29777;DHT22;16677;52.224;7.484;2023-02-11T10:26:22;7.90;14.00
29777;DHT22;16677;52.224;7.484;2023-02-11T10:28:54;7.80;1.00
29777;DHT22;16677;52.224;7.484;2023-02-11T10:31:38;7.80;30.90
29777;DHT22;16677;52.224;7.484;2023-02-11T10:34:10;7.80;1.00
29777;DHT22;16677;52.224;7.484;2023-02-11T10:36:41;7.80;95.20
29777;DHT22;16677;52.224;7.484;2023-02-11T10:39:19;7.90;99.90
29777;DHT22;16677;52.224;7.484;2023-02-11T10:41:52;7.90;1.00
29777;DHT22;16677;52.224;7.484;2023-02-11T10:47:03;7.90;1.00
29777;DHT22;16677;52.224;7.484;2023-02-11T10:49:41;8.10;1.00
29777;DHT22;16677;52.224;7.484;2023-02-11T10:52:25;8.10;99.90
29777;DHT22;16677;52.224;7.484;2023-02-11T10:55:18;8.20;1.00
29777;DHT22;16677;52.224;7.484;2023-02-11T10:57:55;8.00;99.90
29777;DHT22;16677;52.224;7.484;2023-02-11T11:00:33;8.00;1.00
29777;DHT22;16677;52.224;7.484;2023-02-11T11:03:06;8.10;1.00
29777;DHT22;16677;52.224;7.484;2023-02-11T11:05:36;8.10;1.00
29777;DHT22;16677;52.224;7.484;2023-02-11T11:08:08;8.10;1.00
29777;DHT22;16677;52.224;7.484;2023-02-11T11:10:41;8.20;99.90
29777;DHT22;16677;52.224;7.484;2023-02-11T11:13:30;8.30;99.90
29777;DHT22;16677;52.224;7.484;2023-02-11T11:18:41;8.10;1.00
29777;DHT22;16677;52.224;7.484;2023-02-11T11:21:50;8.20;99.90
29777;DHT22;16677;52.224;7.484;2023-02-11T11:26:56;8.40;1.00
29777;DHT22;16677;52.224;7.484;2023-02-11T11:31:58;8.40;1.00
29777;DHT22;16677;52.224;7.484;2023-02-11T11:34:36;8.30;99.90
29777;DHT22;16677;52.224;7.484;2023-02-11T11:37:23;8.40;21.10
29777;DHT22;16677;52.224;7.484;2023-02-11T11:40:22;8.40;51.90
29777;DHT22;16677;52.224;7.484;2023-02-11T11:43:04;8.70;1.00
29777;DHT22;16677;52.224;7.484;2023-02-11T11:45:32;8.70;99.90
29777;DHT22;16677;52.224;7.484;2023-02-11T11:50:48;8.70;99.90
29777;DHT22;16677;52.224;7.484;2023-02-11T11:56:05;8.90;92.00
29777;DHT22;16677;52.224;7.484;2023-02-11T11:58:33;8.80;1.00
29777;DHT22;16677;52.224;7.484;2023-02-11T12:18:30;9.20;1.00
29777;DHT22;16677;52.224;7.484;2023-02-11T12:21:16;9.10;1.00
29777;DHT22;16677;52.224;7.484;2023-02-11T12:26:47;9.40;1.00
29777;DHT22;16677;52.224;7.484;2023-02-11T12:43:22;9.50;1.00
29777;DHT22;16677;52.224;7.484;2023-02-11T12:46:01;9.50;1.00
29777;DHT22;16677;52.224;7.484;2023-02-11T12:51:13;9.80;1.00
29777;DHT22;16677;52.224;7.484;2023-02-11T12:56:25;9.60;1.00
29777;DHT22;16677;52.224;7.484;2023-02-11T12:58:57;9.70;1.00
29777;DHT22;16677;52.224;7.484;2023-02-11T13:01:35;9.60;1.00
29777;DHT22;16677;52.224;7.484;2023-02-11T13:04:11;9.50;1.00
29777;DHT22;16677;52.224;7.484;2023-02-11T13:06:45;9.70;1.00
29777;DHT22;16677;52.224;7.484;2023-02-11T13:09:19;9.80;1.00
29777;DHT22;16677;52.224;7.484;2023-02-11T13:11:54;9.70;1.00
29777;DHT22;16677;52.224;7.484;2023-02-11T13:16:55;9.60;1.00
29777;DHT22;16677;52.224;7.484;2023-02-11T13:22:15;9.70;1.00
29777;DHT22;16677;52.224;7.484;2023-02-11T13:24:47;9.80;1.00
29777;DHT22;16677;52.224;7.484;2023-02-11T13:38:27;9.70;1.00
29777;DHT22;16677;52.224;7.484;2023-02-11T13:41:23;9.80;1.00
29777;DHT22;16677;52.224;7.484;2023-02-11T13:44:01;9.90;1.00
29777;DHT22;16677;52.224;7.484;2023-02-11T13:46:46;9.90;1.00
29777;DHT22;16677;52.224;7.484;2023-02-11T13:49:32;10.10;1.00
29777;DHT22;16677;52.224;7.484;2023-02-11T13:52:02;10.10;1.00
29777;DHT22;16677;52.224;7.484;2023-02-11T13:54:37;10.10;1.00
29777;DHT22;16677;52.224;7.484;2023-02-11T13:57:35;9.90;1.00
29777;DHT22;16677;52.224;7.484;2023-02-11T14:12:25;9.80;1.00
29777;DHT22;16677;52.224;7.484;2023-02-11T14:17:34;9.80;1.00
29777;DHT22;16677;52.224;7.484;2023-02-11T14:22:48;9.80;1.00
29777;DHT22;16677;52.224;7.484;2023-02-11T14:25:25;9.70;1.00
29777;DHT22;16677;52.224;7.484;2023-02-11T14:28:18;9.80;1.00
29777;DHT22;16677;52.224;7.484;2023-02-11T14:31:10;10.00;1.00
29777;DHT22;16677;52.224;7.484;2023-02-11T14:37:32;10.10;1.00
29777;DHT22;16677;52.224;7.484;2023-02-11T14:39:36;9.90;1.00
29777;DHT22;16677;52.224;7.484;2023-02-11T14:42:18;9.90;1.00
29777;DHT22;16677;52.224;7.484;2023-02-11T14:44:49;9.90;1.00
29777;DHT22;16677;52.224;7.484;2023-02-11T14:47:20;10.10;1.00
29777;DHT22;16677;52.224;7.484;2023-02-11T14:49:49;10.10;1.00
29777;DHT22;16677;52.224;7.484;2023-02-11T14:52:21;10.10;1.00
29777;DHT22;16677;52.224;7.484;2023-02-11T14:54:51;10.10;1.00
29777;DHT22;16677;52.224;7.484;2023-02-11T14:57:22;10.10;1.00
29777;DHT22;16677;52.224;7.484;2023-02-11T15:00:03;9.90;1.00
29777;DHT22;16677;52.224;7.484;2023-02-11T15:02:35;10.00;1.00
29777;DHT22;16677;52.224;7.484;2023-02-11T15:05:31;9.90;1.00
29777;DHT22;16677;52.224;7.484;2023-02-11T15:08:00;9.90;1.00
29777;DHT22;16677;52.224;7.484;2023-02-11T15:10:36;10.10;1.00
29777;DHT22;16677;52.224;7.484;2023-02-11T15:13:07;10.10;1.00
29777;DHT22;16677;52.224;7.484;2023-02-11T15:15:34;10.10;1.00
29777;DHT22;16677;52.224;7.484;2023-02-11T15:18:06;10.10;1.00
29777;DHT22;16677;52.224;7.484;2023-02-11T15:20:35;10.10;1.00
29777;DHT22;16677;52.224;7.484;2023-02-11T15:23:06;10.20;1.00
29777;DHT22;16677;52.224;7.484;2023-02-11T15:25:33;10.30;1.00
29777;DHT22;16677;52.224;7.484;2023-02-11T15:28:18;10.30;1.00
29777;DHT22;16677;52.224;7.484;2023-02-11T15:30:59;10.10;1.00
29777;DHT22;16677;52.224;7.484;2023-02-11T15:33:27;10.10;1.00
29777;DHT22;16677;52.224;7.484;2023-02-11T15:35:57;10.20;1.00
29777;DHT22;16677;52.224;7.484;2023-02-11T15:38:24;10.00;1.00
29777;DHT22;16677;52.224;7.484;2023-02-11T15:40:57;10.00;1.00
29777;DHT22;16677;52.224;7.484;2023-02-11T15:43:46;10.00;1.00
29777;DHT22;16677;52.224;7.484;2023-02-11T15:46:18;10.00;1.00
29777;DHT22;16677;52.224;7.484;2023-02-11T15:51:26;9.90;1.00
29777;DHT22;16677;52.224;7.484;2023-02-11T15:53:57;9.90;1.00
29777;DHT22;16677;52.224;7.484;2023-02-11T15:58:58;9.90;1.00
29777;DHT22;16677;52.224;7.484;2023-02-11T16:01:35;9.80;1.00
29777;DHT22;16677;52.224;7.484;2023-02-11T16:04:04;9.90;1.00
29777;DHT22;16677;52.224;7.484;2023-02-11T16:06:39;10.00;1.00
29777;DHT22;16677;52.224;7.484;2023-02-11T16:16:56;9.70;1.00
29777;DHT22;16677;52.224;7.484;2023-02-11T16:19:25;9.70;1.00
29777;DHT22;16677;52.224;7.484;2023-02-11T16:21:54;9.70;1.00
29777;DHT22;16677;52.224;7.484;2023-02-11T16:24:31;9.80;1.00
29777;DHT22;16677;52.224;7.484;2023-02-11T16:27:01;9.70;1.00
29777;DHT22;16677;52.224;7.484;2023-02-11T16:29:32;9.80;1.00
29777;DHT22;16677;52.224;7.484;2023-02-11T16:32:25;9.80;1.00
29777;DHT22;16677;52.224;7.484;2023-02-11T16:34:55;9.80;1.00
29777;DHT22;16677;52.224;7.484;2023-02-11T16:37:26;9.70;1.00
29777;DHT22;16677;52.224;7.484;2023-02-11T16:39:56;9.60;1.00
29777;DHT22;16677;52.224;7.484;2023-02-11T16:42:26;9.60;1.00
29777;DHT22;16677;52.224;7.484;2023-02-11T16:44:53;9.60;1.00
29777;DHT22;16677;52.224;7.484;2023-02-11T16:47:25;9.60;1.00
29777;DHT22;16677;52.224;7.484;2023-02-11T16:49:53;9.60;1.00
29777;DHT22;16677;52.224;7.484;2023-02-11T16:52:21;9.60;1.00
29777;DHT22;16677;52.224;7.484;2023-02-11T16:54:48;9.60;1.00
29777;DHT22;16677;52.224;7.484;2023-02-11T16:57:18;9.60;1.00
29777;DHT22;16677;52.224;7.484;2023-02-11T16:59:45;9.60;1.00
29777;DHT22;16677;52.224;7.484;2023-02-11T17:02:22;9.70;1.00
29777;DHT22;16677;52.224;7.484;2023-02-11T17:04:54;9.60;1.00
29777;DHT22;16677;52.224;7.484;2023-02-11T17:07:21;9.80;1.00
29777;DHT22;16677;52.224;7.484;2023-02-11T17:09:48;9.80;1.00
29777;DHT22;16677;52.224;7.484;2023-02-11T17:12:17;9.70;1.00
29777;DHT22;16677;52.224;7.484;2023-02-11T17:14:44;9.70;1.00
29777;DHT22;16677;52.224;7.484;2023-02-11T17:17:12;9.70;1.00
29777;DHT22;16677;52.224;7.484;2023-02-11T17:19:39;9.80;1.00
29777;DHT22;16677;52.224;7.484;2023-02-11T17:22:06;9.70;1.00
29777;DHT22;16677;52.224;7.484;2023-02-11T17:24:33;9.70;1.00
29777;DHT22;16677;52.224;7.484;2023-02-11T17:27:00;9.70;1.00
29777;DHT22;16677;52.224;7.484;2023-02-11T17:29:27;9.70;1.00
29777;DHT22;16677;52.224;7.484;2023-02-11T17:31:54;9.70;1.00
29777;DHT22;16677;52.224;7.484;2023-02-11T17:34:21;9.70;1.00
29777;DHT22;16677;52.224;7.484;2023-02-11T17:36:49;9.60;1.00
29777;DHT22;16677;52.224;7.484;2023-02-11T17:39:16;9.70;1.00
29777;DHT22;16677;52.224;7.484;2023-02-11T17:41:45;9.60;1.00
29777;DHT22;16677;52.224;7.484;2023-02-11T17:44:12;9.70;1.00
29777;DHT22;16677;52.224;7.484;2023-02-11T17:46:41;9.70;1.00
29777;DHT22;16677;52.224;7.484;2023-02-11T17:49:10;9.80;1.00
29777;DHT22;16677;52.224;7.484;2023-02-11T17:51:38;9.80;1.00
29777;DHT22;16677;52.224;7.484;2023-02-11T17:54:18;9.60;1.00
29777;DHT22;16677;52.224;7.484;2023-02-11T17:56:46;9.50;1.00
29777;DHT22;16677;52.224;7.484;2023-02-11T17:59:16;9.60;1.00
29777;DHT22;16677;52.224;7.484;2023-02-11T18:01:43;9.50;1.00
29777;DHT22;16677;52.224;7.484;2023-02-11T18:04:14;9.40;1.00
29777;DHT22;16677;52.224;7.484;2023-02-11T18:06:42;9.40;1.00
29777;DHT22;16677;52.224;7.484;2023-02-11T18:09:09;9.40;1.00
29777;DHT22;16677;52.224;7.484;2023-02-11T18:11:38;9.40;1.00
29777;DHT22;16677;52.224;7.484;2023-02-11T18:14:05;9.40;1.00
29777;DHT22;16677;52.224;7.484;2023-02-11T18:16:34;9.50;1.00
29777;DHT22;16677;52.224;7.484;2023-02-11T18:19:02;9.60;1.00
29777;DHT22;16677;52.224;7.484;2023-02-11T18:21:29;9.70;1.00
29777;DHT22;16677;52.224;7.484;2023-02-11T18:23:56;9.50;1.00
29777;DHT22;16677;52.224;7.484;2023-02-11T18:26:30;9.50;1.00
29777;DHT22;16677;52.224;7.484;2023-02-11T18:28:57;9.60;1.00
29777;DHT22;16677;52.224;7.484;2023-02-11T18:31:26;9.50;1.00
29777;DHT22;16677;52.224;7.484;2023-02-11T18:33:53;9.50;1.00
29777;DHT22;16677;52.224;7.484;2023-02-11T18:36:21;9.40;1.00
29777;DHT22;16677;52.224;7.484;2023-02-11T18:38:48;9.40;1.00
29777;DHT22;16677;52.224;7.484;2023-02-11T18:41:15;9.40;1.00
29777;DHT22;16677;52.224;7.484;2023-02-11T18:43:42;9.50;1.00